sensor_id;sensor_type;location;lat;lon;timestamp;temperature;humidity
11079;DHT22;5592;49.234;7.268;2024-03-02T00:02:46;2.70;99.90
11079;DHT22;5592;49.234;7.268;2024-03-02T00:05:14;2.70;99.90
11079;DHT22;5592;49.234;7.268;2024-03-02T00:07:45;2.60;99.90
11079;DHT22;5592;49.234;7.268;2024-03-02T00:10:13;2.70;99.90
11079;DHT22;5592;49.234;7.268;2024-03-02T00:12:41;2.80;99.90
11079;DHT22;5592;49.234;7.268;2024-03-02T00:17:55;2.80;99.90
11079;DHT22;5592;49.234;7.268;2024-03-02T00:20:24;2.80;99.90
11079;DHT22;5592;49.234;7.268;2024-03-02T00:22:55;2.70;99.90
11079;DHT22;5592;49.234;7.268;2024-03-02T00:25:25;2.70;99.90
11079;DHT22;5592;49.234;7.268;2024-03-02T00:27:51;2.70;99.90
11079;DHT22;5592;49.234;7.268;2024-03-02T00:33:08;2.60;99.90
11079;DHT22;5592;49.234;7.268;2024-03-02T00:35:33;2.50;99.90
11079;DHT22;5592;49.234;7.268;2024-03-02T00:38:04;2.40;99.90
11079;DHT22;5592;49.234;7.268;2024-03-02T00:40:30;2.40;99.90
11079;DHT22;5592;49.234;7.268;2024-03-02T00:42:56;2.30;99.90
11079;DHT22;5592;49.234;7.268;2024-03-02T00:45:21;2.30;99.90
11079;DHT22;5592;49.234;7.268;2024-03-02T00:47:47;2.30;99.90
11079;DHT22;5592;49.234;7.268;2024-03-02T00:50:13;2.30;99.90
11079;DHT22;5592;49.234;7.268;2024-03-02T00:52:40;2.30;99.90
11079;DHT22;5592;49.234;7.268;2024-03-02T00:55:06;2.20;99.90
11079;DHT22;5592;49.234;7.268;2024-03-02T00:57:35;2.20;99.90
11079;DHT22;5592;49.234;7.268;2024-03-02T01:00:01;2.30;99.90
11079;DHT22;5592;49.234;7.268;2024-03-02T01:02:27;2.20;99.90
11079;DHT22;5592;49.234;7.268;2024-03-02T01:04:53;2.20;99.90
11079;DHT22;5592;49.234;7.268;2024-03-02T01:07:18;2.30;99.90
11079;DHT22;5592;49.234;7.268;2024-03-02T01:09:45;2.20;99.90
11079;DHT22;5592;49.234;7.268;2024-03-02T01:12:10;2.30;99.90
11079;DHT22;5592;49.234;7.268;2024-03-02T01:14:36;2.30;99.90
11079;DHT22;5592;49.234;7.268;2024-03-02T01:17:01;2.30;99.90
11079;DHT22;5592;49.234;7.268;2024-03-02T01:19:29;2.30;99.90
11079;DHT22;5592;49.234;7.268;2024-03-02T01:21:56;2.30;99.90
11079;DHT22;5592;49.234;7.268;2024-03-02T01:24:22;2.40;99.90
11079;DHT22;5592;49.234;7.268;2024-03-02T01:26:47;2.40;99.90
11079;DHT22;5592;49.234;7.268;2024-03-02T01:29:13;2.30;99.90
11079;DHT22;5592;49.234;7.268;2024-03-02T01:31:38;2.40;99.90
11079;DHT22;5592;49.234;7.268;2024-03-02T01:34:07;2.50;99.90
11079;DHT22;5592;49.234;7.268;2024-03-02T01:36:33;2.60;99.90
11079;DHT22;5592;49.234;7.268;2024-03-02T01:38:58;2.70;99.90
11079;DHT22;5592;49.234;7.268;2024-03-02T01:41:24;2.70;99.90
11079;DHT22;5592;49.234;7.268;2024-03-02T01:43:50;2.70;99.90
11079;DHT22;5592;49.234;7.268;2024-03-02T01:46:15;2.60;99.90
11079;DHT22;5592;49.234;7.268;2024-03-02T01:48:41;2.60;99.90
11079;DHT22;5592;49.234;7.268;2024-03-02T01:51:07;2.60;99.90
11079;DHT22;5592;49.234;7.268;2024-03-02T01:53:33;2.70;99.90
11079;DHT22;5592;49.234;7.268;2024-03-02T01:55:59;2.70;99.90
11079;DHT22;5592;49.234;7.268;2024-03-02T01:58:24;2.70;99.90
11079;DHT22;5592;49.234;7.268;2024-03-02T02:00:50;2.70;99.90
11079;DHT22;5592;49.234;7.268;2024-03-02T02:03:15;2.80;99.90
11079;DHT22;5592;49.234;7.268;2024-03-02T02:05:42;2.80;99.90
11079;DHT22;5592;49.234;7.268;2024-03-02T02:08:07;2.90;99.90
11079;DHT22;5592;49.234;7.268;2024-03-02T02:10:33;2.90;99.90
11079;DHT22;5592;49.234;7.268;2024-03-02T02:12:59;2.90;99.90
11079;DHT22;5592;49.234;7.268;2024-03-02T02:15:29;2.80;99.90
11079;DHT22;5592;49.234;7.268;2024-03-02T02:17:55;2.80;99.90
11079;DHT22;5592;49.234;7.268;2024-03-02T02:20:21;2.70;99.90
11079;DHT22;5592;49.234;7.268;2024-03-02T02:23:01;2.60;99.90
11079;DHT22;5592;49.234;7.268;2024-03-02T02:25:28;2.50;99.90
11079;DHT22;5592;49.234;7.268;2024-03-02T02:27:54;2.40;99.90
11079;DHT22;5592;49.234;7.268;2024-03-02T02:30:23;2.30;99.90
11079;DHT22;5592;49.234;7.268;2024-03-02T02:32:49;2.20;99.90
11079;DHT22;5592;49.234;7.268;2024-03-02T02:35:14;2.10;99.90
11079;DHT22;5592;49.234;7.268;2024-03-02T02:37:40;2.00;99.90
11079;DHT22;5592;49.234;7.268;2024-03-02T02:40:07;1.90;99.90
11079;DHT22;5592;49.234;7.268;2024-03-02T02:42:33;1.70;99.90
11079;DHT22;5592;49.234;7.268;2024-03-02T02:44:58;1.70;99.90
11079;DHT22;5592;49.234;7.268;2024-03-02T02:47:25;1.60;99.90
11079;DHT22;5592;49.234;7.268;2024-03-02T02:49:50;1.50;99.90
11079;DHT22;5592;49.234;7.268;2024-03-02T02:52:16;1.50;99.90
11079;DHT22;5592;49.234;7.268;2024-03-02T02:54:41;1.50;99.90
11079;DHT22;5592;49.234;7.268;2024-03-02T02:57:07;1.60;99.90
11079;DHT22;5592;49.234;7.268;2024-03-02T02:59:32;1.80;99.90
11079;DHT22;5592;49.234;7.268;2024-03-02T03:01:58;2.10;99.90
11079;DHT22;5592;49.234;7.268;2024-03-02T03:04:24;2.30;99.90
11079;DHT22;5592;49.234;7.268;2024-03-02T03:06:49;2.50;99.90
11079;DHT22;5592;49.234;7.268;2024-03-02T03:09:15;2.60;99.90
11079;DHT22;5592;49.234;7.268;2024-03-02T03:11:42;2.70;99.90
11079;DHT22;5592;49.234;7.268;2024-03-02T03:14:07;2.70;99.90
11079;DHT22;5592;49.234;7.268;2024-03-02T03:16:33;2.80;99.90
11079;DHT22;5592;49.234;7.268;2024-03-02T03:18:59;2.90;99.90
11079;DHT22;5592;49.234;7.268;2024-03-02T03:21:24;3.00;99.90
11079;DHT22;5592;49.234;7.268;2024-03-02T03:23:50;3.00;99.90
11079;DHT22;5592;49.234;7.268;2024-03-02T03:26:15;3.00;99.90
11079;DHT22;5592;49.234;7.268;2024-03-02T03:28:41;3.10;99.90
11079;DHT22;5592;49.234;7.268;2024-03-02T03:31:06;3.10;99.90
11079;DHT22;5592;49.234;7.268;2024-03-02T03:33:32;3.20;99.90
11079;DHT22;5592;49.234;7.268;2024-03-02T03:35:57;3.40;99.90
11079;DHT22;5592;49.234;7.268;2024-03-02T03:38:23;3.40;99.90
11079;DHT22;5592;49.234;7.268;2024-03-02T03:40:48;3.40;99.90
11079;DHT22;5592;49.234;7.268;2024-03-02T03:43:14;3.50;99.90
11079;DHT22;5592;49.234;7.268;2024-03-02T03:45:40;3.50;99.90
11079;DHT22;5592;49.234;7.268;2024-03-02T03:48:06;3.60;99.90
11079;DHT22;5592;49.234;7.268;2024-03-02T03:50:32;3.60;99.90
11079;DHT22;5592;49.234;7.268;2024-03-02T03:52:57;3.60;99.90
11079;DHT22;5592;49.234;7.268;2024-03-02T03:55:23;3.70;99.90
11079;DHT22;5592;49.234;7.268;2024-03-02T03:57:48;3.70;99.90
11079;DHT22;5592;49.234;7.268;2024-03-02T04:00:14;3.80;99.90
11079;DHT22;5592;49.234;7.268;2024-03-02T04:02:40;3.80;99.90
11079;DHT22;5592;49.234;7.268;2024-03-02T04:05:06;3.80;99.90
11079;DHT22;5592;49.234;7.268;2024-03-02T04:07:35;3.80;99.90
11079;DHT22;5592;49.234;7.268;2024-03-02T04:10:09;3.80;99.90
11079;DHT22;5592;49.234;7.268;2024-03-02T04:12:38;3.90;99.90
11079;DHT22;5592;49.234;7.268;2024-03-02T04:15:04;4.00;99.90
11079;DHT22;5592;49.234;7.268;2024-03-02T04:17:32;4.10;99.90
11079;DHT22;5592;49.234;7.268;2024-03-02T04:19:59;4.20;99.90
11079;DHT22;5592;49.234;7.268;2024-03-02T04:22:25;4.30;99.90
11079;DHT22;5592;49.234;7.268;2024-03-02T04:24:51;4.30;99.90
11079;DHT22;5592;49.234;7.268;2024-03-02T04:27:17;4.30;99.90
11079;DHT22;5592;49.234;7.268;2024-03-02T04:29:42;4.20;99.90
11079;DHT22;5592;49.234;7.268;2024-03-02T04:32:08;4.30;99.90
11079;DHT22;5592;49.234;7.268;2024-03-02T04:34:33;4.30;99.90
11079;DHT22;5592;49.234;7.268;2024-03-02T04:36:59;4.30;99.90
11079;DHT22;5592;49.234;7.268;2024-03-02T04:39:24;4.30;99.90
11079;DHT22;5592;49.234;7.268;2024-03-02T04:41:50;4.30;99.90
11079;DHT22;5592;49.234;7.268;2024-03-02T04:44:16;4.40;99.90
11079;DHT22;5592;49.234;7.268;2024-03-02T04:46:41;4.40;99.90
11079;DHT22;5592;49.234;7.268;2024-03-02T04:49:07;4.40;99.90
11079;DHT22;5592;49.234;7.268;2024-03-02T04:51:32;4.40;99.90
11079;DHT22;5592;49.234;7.268;2024-03-02T04:53:58;4.50;99.90
11079;DHT22;5592;49.234;7.268;2024-03-02T04:56:24;4.50;99.90
11079;DHT22;5592;49.234;7.268;2024-03-02T04:59:08;4.50;99.90
11079;DHT22;5592;49.234;7.268;2024-03-02T05:01:33;4.50;99.90
11079;DHT22;5592;49.234;7.268;2024-03-02T05:03:59;4.50;99.90
11079;DHT22;5592;49.234;7.268;2024-03-02T05:06:25;4.60;99.90
11079;DHT22;5592;49.234;7.268;2024-03-02T05:08:50;4.70;99.90
11079;DHT22;5592;49.234;7.268;2024-03-02T05:11:16;4.80;99.90
11079;DHT22;5592;49.234;7.268;2024-03-02T05:14:01;4.80;99.90
11079;DHT22;5592;49.234;7.268;2024-03-02T05:16:27;4.80;99.90
11079;DHT22;5592;49.234;7.268;2024-03-02T05:18:52;4.80;99.90
11079;DHT22;5592;49.234;7.268;2024-03-02T05:21:18;4.80;99.90
11079;DHT22;5592;49.234;7.268;2024-03-02T05:23:43;4.80;99.90
11079;DHT22;5592;49.234;7.268;2024-03-02T05:26:09;4.80;99.90
11079;DHT22;5592;49.234;7.268;2024-03-02T05:28:38;4.80;99.90
11079;DHT22;5592;49.234;7.268;2024-03-02T05:31:04;4.70;99.90
11079;DHT22;5592;49.234;7.268;2024-03-02T05:33:29;4.70;99.90
11079;DHT22;5592;49.234;7.268;2024-03-02T05:35:56;4.70;99.90
11079;DHT22;5592;49.234;7.268;2024-03-02T05:38:22;4.70;99.90
11079;DHT22;5592;49.234;7.268;2024-03-02T05:40:48;4.70;99.90
11079;DHT22;5592;49.234;7.268;2024-03-02T05:43:13;4.80;99.90
11079;DHT22;5592;49.234;7.268;2024-03-02T05:45:39;4.90;99.90
11079;DHT22;5592;49.234;7.268;2024-03-02T05:48:06;4.90;99.90
11079;DHT22;5592;49.234;7.268;2024-03-02T05:50:33;5.00;99.90
11079;DHT22;5592;49.234;7.268;2024-03-02T05:52:58;4.90;99.90
11079;DHT22;5592;49.234;7.268;2024-03-02T05:55:24;4.90;99.90
11079;DHT22;5592;49.234;7.268;2024-03-02T05:57:50;4.90;99.90
11079;DHT22;5592;49.234;7.268;2024-03-02T06:00:35;4.90;99.90
11079;DHT22;5592;49.234;7.268;2024-03-02T06:03:01;4.90;99.90
11079;DHT22;5592;49.234;7.268;2024-03-02T06:05:26;4.90;99.90
11079;DHT22;5592;49.234;7.268;2024-03-02T06:07:52;4.90;99.90
11079;DHT22;5592;49.234;7.268;2024-03-02T06:10:18;4.90;99.90
11079;DHT22;5592;49.234;7.268;2024-03-02T06:12:43;4.90;99.90
11079;DHT22;5592;49.234;7.268;2024-03-02T06:15:09;4.90;99.90
11079;DHT22;5592;49.234;7.268;2024-03-02T06:17:35;5.00;99.90
11079;DHT22;5592;49.234;7.268;2024-03-02T06:20:01;5.00;99.90
11079;DHT22;5592;49.234;7.268;2024-03-02T06:22:26;5.00;99.90
11079;DHT22;5592;49.234;7.268;2024-03-02T06:24:52;5.00;99.90
11079;DHT22;5592;49.234;7.268;2024-03-02T06:27:17;5.10;99.90
11079;DHT22;5592;49.234;7.268;2024-03-02T06:29:43;5.10;99.90
11079;DHT22;5592;49.234;7.268;2024-03-02T06:32:08;5.20;99.90
11079;DHT22;5592;49.234;7.268;2024-03-02T06:34:34;5.10;99.90
11079;DHT22;5592;49.234;7.268;2024-03-02T06:36:59;5.10;99.90
11079;DHT22;5592;49.234;7.268;2024-03-02T06:39:25;5.10;99.90
11079;DHT22;5592;49.234;7.268;2024-03-02T06:41:51;5.20;99.90
11079;DHT22;5592;49.234;7.268;2024-03-02T06:44:17;5.30;99.90
11079;DHT22;5592;49.234;7.268;2024-03-02T06:46:42;5.30;99.90
11079;DHT22;5592;49.234;7.268;2024-03-02T06:49:08;5.40;99.90
11079;DHT22;5592;49.234;7.268;2024-03-02T06:51:35;5.50;99.90
11079;DHT22;5592;49.234;7.268;2024-03-02T06:54:01;5.60;99.90
11079;DHT22;5592;49.234;7.268;2024-03-02T06:56:27;5.70;99.90
11079;DHT22;5592;49.234;7.268;2024-03-02T06:58:52;5.80;99.90
11079;DHT22;5592;49.234;7.268;2024-03-02T07:01:18;5.90;99.90
11079;DHT22;5592;49.234;7.268;2024-03-02T07:03:43;6.00;99.90
11079;DHT22;5592;49.234;7.268;2024-03-02T07:06:09;6.00;99.90
11079;DHT22;5592;49.234;7.268;2024-03-02T07:08:35;6.10;99.90
11079;DHT22;5592;49.234;7.268;2024-03-02T07:11:00;6.10;99.90
11079;DHT22;5592;49.234;7.268;2024-03-02T07:13:26;6.10;99.90
11079;DHT22;5592;49.234;7.268;2024-03-02T07:15:52;6.20;99.90
11079;DHT22;5592;49.234;7.268;2024-03-02T07:18:36;6.20;99.90
11079;DHT22;5592;49.234;7.268;2024-03-02T07:21:10;6.10;99.90
11079;DHT22;5592;49.234;7.268;2024-03-02T07:23:36;6.20;99.90
11079;DHT22;5592;49.234;7.268;2024-03-02T07:26:02;6.20;99.90
11079;DHT22;5592;49.234;7.268;2024-03-02T07:28:28;6.20;99.90
11079;DHT22;5592;49.234;7.268;2024-03-02T07:31:04;6.30;99.90
11079;DHT22;5592;49.234;7.268;2024-03-02T07:33:30;6.30;99.90
11079;DHT22;5592;49.234;7.268;2024-03-02T07:35:57;6.40;99.90
11079;DHT22;5592;49.234;7.268;2024-03-02T07:38:23;6.40;99.90
11079;DHT22;5592;49.234;7.268;2024-03-02T07:40:51;6.50;99.90
11079;DHT22;5592;49.234;7.268;2024-03-02T07:43:17;6.60;99.90
11079;DHT22;5592;49.234;7.268;2024-03-02T07:45:43;6.80;99.90
11079;DHT22;5592;49.234;7.268;2024-03-02T07:48:09;6.90;99.90
11079;DHT22;5592;49.234;7.268;2024-03-02T07:50:34;7.20;99.90
11079;DHT22;5592;49.234;7.268;2024-03-02T07:53:03;7.40;99.90
11079;DHT22;5592;49.234;7.268;2024-03-02T07:55:29;7.50;99.90
11079;DHT22;5592;49.234;7.268;2024-03-02T07:57:56;7.70;99.90
11079;DHT22;5592;49.234;7.268;2024-03-02T08:00:22;7.70;99.90
11079;DHT22;5592;49.234;7.268;2024-03-02T08:02:51;7.90;99.90
11079;DHT22;5592;49.234;7.268;2024-03-02T08:05:17;8.00;99.90
11079;DHT22;5592;49.234;7.268;2024-03-02T08:07:45;8.10;99.90
11079;DHT22;5592;49.234;7.268;2024-03-02T08:10:11;8.20;99.90
11079;DHT22;5592;49.234;7.268;2024-03-02T08:12:36;8.30;99.90
11079;DHT22;5592;49.234;7.268;2024-03-02T08:15:02;8.40;99.90
11079;DHT22;5592;49.234;7.268;2024-03-02T08:17:28;8.50;99.90
11079;DHT22;5592;49.234;7.268;2024-03-02T08:19:54;8.60;99.90
11079;DHT22;5592;49.234;7.268;2024-03-02T08:22:19;8.60;99.90
11079;DHT22;5592;49.234;7.268;2024-03-02T08:24:45;8.60;99.90
11079;DHT22;5592;49.234;7.268;2024-03-02T08:27:11;8.60;99.90
11079;DHT22;5592;49.234;7.268;2024-03-02T08:29:37;8.60;99.90
11079;DHT22;5592;49.234;7.268;2024-03-02T08:32:03;8.60;99.90
11079;DHT22;5592;49.234;7.268;2024-03-02T08:34:29;8.50;99.90
11079;DHT22;5592;49.234;7.268;2024-03-02T08:36:54;8.50;99.90
11079;DHT22;5592;49.234;7.268;2024-03-02T08:39:20;8.60;99.90
11079;DHT22;5592;49.234;7.268;2024-03-02T08:41:46;8.60;99.90
11079;DHT22;5592;49.234;7.268;2024-03-02T08:44:12;8.70;99.90
11079;DHT22;5592;49.234;7.268;2024-03-02T08:46:40;8.80;99.90
11079;DHT22;5592;49.234;7.268;2024-03-02T08:49:07;8.80;99.90
11079;DHT22;5592;49.234;7.268;2024-03-02T08:51:33;8.90;99.90
11079;DHT22;5592;49.234;7.268;2024-03-02T08:53:59;8.90;99.90
11079;DHT22;5592;49.234;7.268;2024-03-02T08:56:25;9.00;99.90
11079;DHT22;5592;49.234;7.268;2024-03-02T08:58:51;9.00;99.90
11079;DHT22;5592;49.234;7.268;2024-03-02T09:01:17;9.10;99.90
11079;DHT22;5592;49.234;7.268;2024-03-02T09:03:43;9.10;99.90
11079;DHT22;5592;49.234;7.268;2024-03-02T09:06:12;9.10;99.90
11079;DHT22;5592;49.234;7.268;2024-03-02T09:08:39;9.10;99.90
11079;DHT22;5592;49.234;7.268;2024-03-02T09:11:05;9.10;99.90
11079;DHT22;5592;49.234;7.268;2024-03-02T09:13:32;9.10;99.90
11079;DHT22;5592;49.234;7.268;2024-03-02T09:15:58;9.20;99.90
11079;DHT22;5592;49.234;7.268;2024-03-02T09:18:23;9.30;99.90
11079;DHT22;5592;49.234;7.268;2024-03-02T09:20:49;9.40;99.90
11079;DHT22;5592;49.234;7.268;2024-03-02T09:23:14;9.50;99.90
11079;DHT22;5592;49.234;7.268;2024-03-02T09:25:40;9.50;99.90
11079;DHT22;5592;49.234;7.268;2024-03-02T09:28:05;9.60;99.90
11079;DHT22;5592;49.234;7.268;2024-03-02T09:30:32;9.80;99.90
11079;DHT22;5592;49.234;7.268;2024-03-02T09:32:58;9.90;99.90
11079;DHT22;5592;49.234;7.268;2024-03-02T09:35:24;10.10;99.90
11079;DHT22;5592;49.234;7.268;2024-03-02T09:37:50;10.30;99.90
11079;DHT22;5592;49.234;7.268;2024-03-02T09:40:16;10.50;99.90
11079;DHT22;5592;49.234;7.268;2024-03-02T09:42:41;10.50;99.90
11079;DHT22;5592;49.234;7.268;2024-03-02T09:45:08;10.70;99.90
11079;DHT22;5592;49.234;7.268;2024-03-02T09:47:34;10.80;99.90
11079;DHT22;5592;49.234;7.268;2024-03-02T09:49:59;11.20;99.90
11079;DHT22;5592;49.234;7.268;2024-03-02T09:52:25;11.30;99.90
11079;DHT22;5592;49.234;7.268;2024-03-02T09:54:51;11.50;99.90
11079;DHT22;5592;49.234;7.268;2024-03-02T09:57:17;11.40;99.90
11079;DHT22;5592;49.234;7.268;2024-03-02T09:59:42;11.40;99.90
11079;DHT22;5592;49.234;7.268;2024-03-02T10:02:08;11.60;99.90
11079;DHT22;5592;49.234;7.268;2024-03-02T10:04:34;12.10;99.90
11079;DHT22;5592;49.234;7.268;2024-03-02T10:07:15;12.40;99.90
11079;DHT22;5592;49.234;7.268;2024-03-02T10:09:42;13.60;99.90
11079;DHT22;5592;49.234;7.268;2024-03-02T10:12:09;15.40;99.90
11079;DHT22;5592;49.234;7.268;2024-03-02T10:14:37;16.80;99.90
11079;DHT22;5592;49.234;7.268;2024-03-02T10:17:05;17.10;99.90
11079;DHT22;5592;49.234;7.268;2024-03-02T10:19:31;18.10;99.90
11079;DHT22;5592;49.234;7.268;2024-03-02T10:21:58;18.50;99.90
11079;DHT22;5592;49.234;7.268;2024-03-02T10:24:24;18.90;99.90
11079;DHT22;5592;49.234;7.268;2024-03-02T10:26:51;19.10;99.90
11079;DHT22;5592;49.234;7.268;2024-03-02T10:29:16;19.60;99.90
11079;DHT22;5592;49.234;7.268;2024-03-02T10:31:46;20.20;99.90
11079;DHT22;5592;49.234;7.268;2024-03-02T10:34:12;20.40;99.90
11079;DHT22;5592;49.234;7.268;2024-03-02T10:36:41;19.70;99.90
11079;DHT22;5592;49.234;7.268;2024-03-02T10:39:08;19.10;99.90
11079;DHT22;5592;49.234;7.268;2024-03-02T10:41:37;18.80;99.90
11079;DHT22;5592;49.234;7.268;2024-03-02T10:44:08;18.50;99.90
11079;DHT22;5592;49.234;7.268;2024-03-02T10:46:35;19.20;99.90
11079;DHT22;5592;49.234;7.268;2024-03-02T10:49:05;19.70;99.90
11079;DHT22;5592;49.234;7.268;2024-03-02T10:51:34;19.50;99.90
11079;DHT22;5592;49.234;7.268;2024-03-02T10:54:02;19.70;99.90
11079;DHT22;5592;49.234;7.268;2024-03-02T10:56:31;19.10;99.90
11079;DHT22;5592;49.234;7.268;2024-03-02T11:01:48;18.00;99.90
11079;DHT22;5592;49.234;7.268;2024-03-02T11:04:16;17.60;99.90
11079;DHT22;5592;49.234;7.268;2024-03-02T11:06:48;17.70;99.90
11079;DHT22;5592;49.234;7.268;2024-03-02T11:09:14;17.30;99.90
11079;DHT22;5592;49.234;7.268;2024-03-02T11:11:42;17.00;99.90
11079;DHT22;5592;49.234;7.268;2024-03-02T11:14:14;17.10;99.90
11079;DHT22;5592;49.234;7.268;2024-03-02T11:16:42;17.60;99.90
11079;DHT22;5592;49.234;7.268;2024-03-02T11:19:11;18.40;99.90
11079;DHT22;5592;49.234;7.268;2024-03-02T11:21:38;17.50;99.90
11079;DHT22;5592;49.234;7.268;2024-03-02T11:26:52;16.90;99.90
11079;DHT22;5592;49.234;7.268;2024-03-02T11:32:06;16.50;99.90
11079;DHT22;5592;49.234;7.268;2024-03-02T11:34:33;16.10;99.90
11079;DHT22;5592;49.234;7.268;2024-03-02T11:37:01;16.30;99.90
11079;DHT22;5592;49.234;7.268;2024-03-02T11:39:28;16.60;99.90
11079;DHT22;5592;49.234;7.268;2024-03-02T11:41:54;16.70;99.90
11079;DHT22;5592;49.234;7.268;2024-03-02T11:44:20;16.80;99.90
11079;DHT22;5592;49.234;7.268;2024-03-02T11:46:52;16.90;99.90
11079;DHT22;5592;49.234;7.268;2024-03-02T11:49:43;16.70;99.90
11079;DHT22;5592;49.234;7.268;2024-03-02T11:52:10;16.30;99.90
11079;DHT22;5592;49.234;7.268;2024-03-02T11:54:38;16.10;99.90
11079;DHT22;5592;49.234;7.268;2024-03-02T11:57:11;15.70;99.90
11079;DHT22;5592;49.234;7.268;2024-03-02T11:59:37;15.60;99.90
11079;DHT22;5592;49.234;7.268;2024-03-02T12:02:02;15.50;99.90
11079;DHT22;5592;49.234;7.268;2024-03-02T12:04:29;15.20;99.90
11079;DHT22;5592;49.234;7.268;2024-03-02T12:07:00;14.60;99.90
11079;DHT22;5592;49.234;7.268;2024-03-02T12:09:27;14.50;99.90
11079;DHT22;5592;49.234;7.268;2024-03-02T12:14:32;14.70;99.90
11079;DHT22;5592;49.234;7.268;2024-03-02T12:16:58;15.10;99.90
11079;DHT22;5592;49.234;7.268;2024-03-02T12:19:25;15.10;99.90
11079;DHT22;5592;49.234;7.268;2024-03-02T12:21:52;14.90;99.90
11079;DHT22;5592;49.234;7.268;2024-03-02T12:24:17;14.80;99.90
11079;DHT22;5592;49.234;7.268;2024-03-02T12:26:43;14.50;99.90
11079;DHT22;5592;49.234;7.268;2024-03-02T12:29:09;14.20;99.90
11079;DHT22;5592;49.234;7.268;2024-03-02T12:31:35;14.10;99.90
11079;DHT22;5592;49.234;7.268;2024-03-02T12:34:02;14.00;99.90
11079;DHT22;5592;49.234;7.268;2024-03-02T12:36:27;13.90;99.90
11079;DHT22;5592;49.234;7.268;2024-03-02T12:38:53;14.00;99.90
11079;DHT22;5592;49.234;7.268;2024-03-02T12:41:20;14.00;99.90
11079;DHT22;5592;49.234;7.268;2024-03-02T12:43:46;14.00;99.90
11079;DHT22;5592;49.234;7.268;2024-03-02T12:46:12;13.90;99.90
11079;DHT22;5592;49.234;7.268;2024-03-02T12:48:37;13.90;99.90
11079;DHT22;5592;49.234;7.268;2024-03-02T12:51:07;13.70;99.90
11079;DHT22;5592;49.234;7.268;2024-03-02T12:53:33;13.90;99.90
11079;DHT22;5592;49.234;7.268;2024-03-02T12:55:58;13.80;99.90
11079;DHT22;5592;49.234;7.268;2024-03-02T12:58:24;13.80;99.90
11079;DHT22;5592;49.234;7.268;2024-03-02T13:01:08;13.80;99.90
11079;DHT22;5592;49.234;7.268;2024-03-02T13:03:38;14.10;99.90
11079;DHT22;5592;49.234;7.268;2024-03-02T13:06:05;14.10;99.90
11079;DHT22;5592;49.234;7.268;2024-03-02T13:08:31;14.30;99.90
11079;DHT22;5592;49.234;7.268;2024-03-02T13:10:56;14.30;99.90
11079;DHT22;5592;49.234;7.268;2024-03-02T13:13:22;14.30;99.90
11079;DHT22;5592;49.234;7.268;2024-03-02T13:15:48;14.40;99.90
11079;DHT22;5592;49.234;7.268;2024-03-02T13:18:14;14.40;99.90
11079;DHT22;5592;49.234;7.268;2024-03-02T13:20:39;14.30;99.90
11079;DHT22;5592;49.234;7.268;2024-03-02T13:23:05;14.50;99.90
11079;DHT22;5592;49.234;7.268;2024-03-02T13:25:31;14.60;99.90
11079;DHT22;5592;49.234;7.268;2024-03-02T13:27:57;14.30;99.90
11079;DHT22;5592;49.234;7.268;2024-03-02T13:30:23;14.10;99.90
11079;DHT22;5592;49.234;7.268;2024-03-02T13:32:49;14.00;99.90
11079;DHT22;5592;49.234;7.268;2024-03-02T13:35:14;13.80;99.90
11079;DHT22;5592;49.234;7.268;2024-03-02T13:37:40;13.70;99.90
11079;DHT22;5592;49.234;7.268;2024-03-02T13:40:06;13.80;99.90
11079;DHT22;5592;49.234;7.268;2024-03-02T13:42:32;13.80;99.90
11079;DHT22;5592;49.234;7.268;2024-03-02T13:44:57;14.00;99.90
11079;DHT22;5592;49.234;7.268;2024-03-02T13:47:23;14.10;99.90
11079;DHT22;5592;49.234;7.268;2024-03-02T13:49:48;14.10;99.90
11079;DHT22;5592;49.234;7.268;2024-03-02T13:52:15;14.20;99.90
11079;DHT22;5592;49.234;7.268;2024-03-02T13:54:43;14.10;99.90
11079;DHT22;5592;49.234;7.268;2024-03-02T13:57:10;13.90;99.90
11079;DHT22;5592;49.234;7.268;2024-03-02T13:59:36;13.70;99.90
11079;DHT22;5592;49.234;7.268;2024-03-02T14:02:02;13.70;99.90
11079;DHT22;5592;49.234;7.268;2024-03-02T14:04:32;13.70;99.90
11079;DHT22;5592;49.234;7.268;2024-03-02T14:06:58;13.70;99.90
11079;DHT22;5592;49.234;7.268;2024-03-02T14:09:24;13.60;99.90
11079;DHT22;5592;49.234;7.268;2024-03-02T14:11:50;13.70;99.90
11079;DHT22;5592;49.234;7.268;2024-03-02T14:14:17;13.60;99.90
11079;DHT22;5592;49.234;7.268;2024-03-02T14:16:43;13.60;99.90
11079;DHT22;5592;49.234;7.268;2024-03-02T14:19:10;13.60;99.90
11079;DHT22;5592;49.234;7.268;2024-03-02T14:21:36;13.70;99.90
11079;DHT22;5592;49.234;7.268;2024-03-02T14:24:02;13.80;99.90
11079;DHT22;5592;49.234;7.268;2024-03-02T14:26:28;13.80;99.90
11079;DHT22;5592;49.234;7.268;2024-03-02T14:28:54;13.80;99.90
11079;DHT22;5592;49.234;7.268;2024-03-02T14:31:20;13.80;99.90
11079;DHT22;5592;49.234;7.268;2024-03-02T14:33:46;13.80;99.90
11079;DHT22;5592;49.234;7.268;2024-03-02T14:36:11;13.80;99.90
11079;DHT22;5592;49.234;7.268;2024-03-02T14:38:38;13.90;99.90
11079;DHT22;5592;49.234;7.268;2024-03-02T14:41:04;14.20;99.90
11079;DHT22;5592;49.234;7.268;2024-03-02T14:43:30;14.50;99.90
11079;DHT22;5592;49.234;7.268;2024-03-02T14:45:56;14.70;99.90
11079;DHT22;5592;49.234;7.268;2024-03-02T14:48:21;14.60;99.90
11079;DHT22;5592;49.234;7.268;2024-03-02T14:50:47;14.70;99.90
11079;DHT22;5592;49.234;7.268;2024-03-02T14:53:14;14.80;99.90
11079;DHT22;5592;49.234;7.268;2024-03-02T14:55:43;14.70;99.90
11079;DHT22;5592;49.234;7.268;2024-03-02T14:58:08;14.60;99.90
11079;DHT22;5592;49.234;7.268;2024-03-02T15:00:35;14.60;99.90
11079;DHT22;5592;49.234;7.268;2024-03-02T15:03:00;14.50;99.90
11079;DHT22;5592;49.234;7.268;2024-03-02T15:05:27;14.50;99.90
11079;DHT22;5592;49.234;7.268;2024-03-02T15:07:52;14.30;99.90
11079;DHT22;5592;49.234;7.268;2024-03-02T15:10:18;14.20;99.90
11079;DHT22;5592;49.234;7.268;2024-03-02T15:12:44;14.10;99.90
11079;DHT22;5592;49.234;7.268;2024-03-02T15:15:10;14.10;99.90
11079;DHT22;5592;49.234;7.268;2024-03-02T15:17:38;14.10;99.90
11079;DHT22;5592;49.234;7.268;2024-03-02T15:20:04;14.10;99.90
11079;DHT22;5592;49.234;7.268;2024-03-02T15:22:32;14.00;99.90
11079;DHT22;5592;49.234;7.268;2024-03-02T15:24:58;14.10;99.90
11079;DHT22;5592;49.234;7.268;2024-03-02T15:27:23;14.00;99.90
11079;DHT22;5592;49.234;7.268;2024-03-02T15:29:50;14.10;99.90
11079;DHT22;5592;49.234;7.268;2024-03-02T15:32:17;14.10;99.90
11079;DHT22;5592;49.234;7.268;2024-03-02T15:34:43;14.10;99.90
11079;DHT22;5592;49.234;7.268;2024-03-02T15:37:08;14.10;99.90
11079;DHT22;5592;49.234;7.268;2024-03-02T15:39:34;14.30;99.90
11079;DHT22;5592;49.234;7.268;2024-03-02T15:41:59;14.40;99.90
11079;DHT22;5592;49.234;7.268;2024-03-02T15:44:25;14.40;99.90
11079;DHT22;5592;49.234;7.268;2024-03-02T15:46:51;14.40;99.90
11079;DHT22;5592;49.234;7.268;2024-03-02T15:49:16;14.30;99.90
11079;DHT22;5592;49.234;7.268;2024-03-02T15:51:42;14.20;99.90
11079;DHT22;5592;49.234;7.268;2024-03-02T15:54:10;14.30;99.90
11079;DHT22;5592;49.234;7.268;2024-03-02T15:56:35;14.20;99.90
11079;DHT22;5592;49.234;7.268;2024-03-02T15:59:01;14.10;99.90
11079;DHT22;5592;49.234;7.268;2024-03-02T16:01:27;14.10;99.90
11079;DHT22;5592;49.234;7.268;2024-03-02T16:03:53;14.00;99.90
11079;DHT22;5592;49.234;7.268;2024-03-02T16:06:18;13.90;99.90
11079;DHT22;5592;49.234;7.268;2024-03-02T16:08:44;13.80;99.90